Austin (LCRA Redbud)'s Hourly Summary for Friday, March 17, 2017
Hour Temp
(f)
RH
(%)
Solar Rad.
(MJ/m2)
Rainfall
(in)
Wind
(mph)
3/17/2017 12:00 AM 68 73 0 0 5.55
3/17/2017 1:00 AM 67 78 0 0 5.15
3/17/2017 2:00 AM 67 83 0 0 4.37
3/17/2017 3:00 AM 67 84 0 0 4.45
3/17/2017 4:00 AM 66 85 0 0 4.16
3/17/2017 5:00 AM 66 85 0 0 3.58
3/17/2017 6:00 AM 66 86 0 0 3.27
3/17/2017 7:00 AM 67 85 0 0 3.79
3/17/2017 8:00 AM 67 85 0 0 4.04
3/17/2017 9:00 AM 67 86 0.05 0 3.96
3/17/2017 10:00 AM 67 85 0.12 0 4.03
3/17/2017 11:00 AM 68 80 0.33 0 4.26
3/17/2017 12:00 PM 71 75 0.76 0 5.45
3/17/2017 1:00 PM 72 68 0.79 0 5.52
3/17/2017 2:00 PM 75 64 1.1 0 5.63
3/17/2017 3:00 PM 77 58 1.53 0 5.39
3/17/2017 4:00 PM 79 51 2.08 0 6.55
3/17/2017 5:00 PM 81 47 2.07 0 6.62
3/17/2017 6:00 PM 82 46 1.27 0 5.55
3/17/2017 7:00 PM 81 47 0.63 0 4.47
3/17/2017 8:00 PM 77 54 0.1 0 4.33
3/17/2017 9:00 PM 75 61 0 0 4.03
3/17/2017 10:00 PM 73 66 0 0 4.59
3/17/2017 11:00 PM 71 71 0 0 4.74
Data Summary 71 70 10.83 0.00 4.73